Time;durP1;ratioP1;P1;durP2;ratioP2;P2;SDS_P1;SDS_P2;PMS_P1;PMS_P2;Temp;Humidity;BMP_temperature;BMP_pressure;BME280_temperature;BME280_humidity;BME280_pressure;Samples;Min_cycle;Max_cycle;Signal;HPM_P1;HPM_P2
2023/10/07 00:01:49;;;;;;;5.57;2.87;;;;;;;;;;5043831;28;20185;-89
2023/10/07 00:04:14;;;;;;;4.43;3.13;;;;;;;;;;5036569;28;20221;-90
2023/10/07 00:06:39;;;;;;;5.80;3.20;;;;;;;;;;5045827;28;20187;-90
2023/10/07 00:09:10;;;;;;;5.57;3.20;;;;;;;;;;5041060;28;20235;-90
2023/10/07 00:11:35;;;;;;;5.63;3.00;;;;;;;;;;5045130;28;20192;-90
2023/10/07 00:14:02;;;;;;;6.90;3.10;;;;;;;;;;5044430;28;20207;-90
2023/10/07 00:16:28;;;;;;;5.77;3.23;;;;;;;;;;5048644;28;20184;-90
2023/10/07 00:18:54;;;;;;;5.13;3.47;;;;;;;;;;5049751;28;20181;-89
2023/10/07 00:21:27;;;;;;;5.20;2.80;;;;;;;;;;5053817;28;20183;-89
2023/10/07 00:23:53;;;;;;;6.90;3.10;;;;;;;;;;5043158;28;20203;-91
2023/10/07 00:26:18;;;;;;;4.97;2.57;;;;;;;;;;5055986;28;20199;-90
2023/10/07 00:28:54;;;;;;;4.67;3.53;;;;;;;;;;5048334;28;20186;-91
2023/10/07 00:31:22;;;;;;;5.30;2.40;;;;;;;;;;5046810;28;20197;-89
2023/10/07 00:34:05;;;;;;;6.77;3.23;;;;;;;;;;5050720;28;20169;-91
2023/10/07 00:38:59;;;;;;;8.43;3.03;;;;;;;;;;5048062;28;20195;-89
2023/10/07 00:41:36;;;;;;;7.40;2.97;;;;;;;;;;5039704;28;20201;-89
2023/10/07 00:44:16;;;;;;;5.30;3.13;;;;;;;;;;5050980;28;20207;-90
2023/10/07 00:46:41;;;;;;;4.03;2.97;;;;;;;;;;5045802;28;20201;-89
2023/10/07 00:49:13;;;;;;;6.90;2.73;;;;;;;;;;5045749;28;20189;-90
2023/10/07 00:51:45;;;;;;;5.27;3.27;;;;;;;;;;5044166;28;20230;-89
2023/10/07 00:54:18;;;;;;;6.40;3.00;;;;;;;;;;5040366;28;20189;-90
2023/10/07 00:56:53;;;;;;;4.87;3.20;;;;;;;;;;5041720;28;20188;-91
2023/10/07 00:59:19;;;;;;;6.67;3.13;;;;;;;;;;5053589;28;20213;-90
2023/10/07 01:01:47;;;;;;;4.13;3.00;;;;;;;;;;5049009;28;20234;-89
2023/10/07 01:04:15;;;;;;;7.47;3.30;;;;;;;;;;5049452;28;20239;-89
2023/10/07 01:06:45;;;;;;;4.87;3.03;;;;;;;;;;5045573;28;20180;-88
2023/10/07 01:09:11;;;;;;;5.90;3.00;;;;;;;;;;5045241;28;20197;-90
2023/10/07 01:11:46;;;;;;;7.13;3.90;;;;;;;;;;5042099;28;20209;-89
2023/10/07 01:14:12;;;;;;;4.83;3.20;;;;;;;;;;5043368;28;20189;-90
2023/10/07 01:16:40;;;;;;;6.53;3.30;;;;;;;;;;5048768;28;20366;-89
2023/10/07 01:21:39;;;;;;;6.43;2.73;;;;;;;;;;5050334;28;20189;-90
2023/10/07 01:24:06;;;;;;;7.20;3.30;;;;;;;;;;5047524;28;20196;-90
2023/10/07 01:26:39;;;;;;;5.17;3.10;;;;;;;;;;5049719;28;20178;-90
2023/10/07 01:29:13;;;;;;;5.40;2.97;;;;;;;;;;5044024;28;20190;-89
2023/10/07 01:31:59;;;;;;;4.60;3.03;;;;;;;;;;5047404;28;20207;-89
2023/10/07 01:34:24;;;;;;;4.20;3.00;;;;;;;;;;5047667;28;20178;-90
2023/10/07 01:36:51;;;;;;;5.57;3.20;;;;;;;;;;5046013;28;20518;-89
2023/10/07 01:39:16;;;;;;;4.17;2.73;;;;;;;;;;5045856;28;20169;-89
2023/10/07 01:41:42;;;;;;;5.33;3.17;;;;;;;;;;5047234;28;20242;-90
2023/10/07 01:44:07;;;;;;;7.17;3.07;;;;;;;;;;5047714;28;20394;-89
2023/10/07 01:46:34;;;;;;;5.33;3.53;;;;;;;;;;5044095;28;20185;-89
2023/10/07 01:49:12;;;;;;;4.20;2.87;;;;;;;;;;5044372;28;20204;-90
2023/10/07 01:51:44;;;;;;;4.70;2.73;;;;;;;;;;5050789;28;20212;-89
2023/10/07 01:54:11;;;;;;;3.77;2.60;;;;;;;;;;5051718;28;20196;-89
2023/10/07 01:56:38;;;;;;;4.63;3.03;;;;;;;;;;5047533;28;20193;-89
2023/10/07 01:59:17;;;;;;;6.97;3.23;;;;;;;;;;5046431;28;20451;-89
2023/10/07 02:01:46;;;;;;;5.53;3.03;;;;;;;;;;5047064;28;20235;-89
2023/10/07 02:04:18;;;;;;;5.00;3.13;;;;;;;;;;5041729;28;20198;-89
2023/10/07 02:06:54;;;;;;;5.80;3.07;;;;;;;;;;5047053;28;20188;-89
2023/10/07 02:09:26;;;;;;;5.93;3.30;;;;;;;;;;5045233;28;20184;-91
2023/10/07 02:12:07;;;;;;;4.83;3.27;;;;;;;;;;5042928;28;20204;-89
2023/10/07 02:14:34;;;;;;;6.53;2.80;;;;;;;;;;5046491;28;20188;-91
2023/10/07 02:16:59;;;;;;;5.27;3.17;;;;;;;;;;5047500;28;20195;-89
2023/10/07 02:19:28;;;;;;;8.20;3.60;;;;;;;;;;5046549;28;20180;-90
2023/10/07 02:21:59;;;;;;;7.90;3.67;;;;;;;;;;5040706;28;20184;-89
2023/10/07 02:24:29;;;;;;;4.53;3.10;;;;;;;;;;5029193;28;20224;-90
2023/10/07 02:27:19;;;;;;;7.00;3.57;;;;;;;;;;5051513;28;20198;-90
2023/10/07 02:29:48;;;;;;;5.50;2.73;;;;;;;;;;5047420;28;20242;-89
2023/10/07 02:32:17;;;;;;;6.17;3.57;;;;;;;;;;5046023;28;20212;-89
2023/10/07 02:34:52;;;;;;;3.80;2.97;;;;;;;;;;5048009;28;20186;-91
2023/10/07 02:37:25;;;;;;;4.40;3.30;;;;;;;;;;5039382;28;20192;-90
2023/10/07 02:39:56;;;;;;;5.50;3.27;;;;;;;;;;5040621;28;20185;-90
2023/10/07 02:42:23;;;;;;;8.63;3.77;;;;;;;;;;5042569;28;20238;-90
2023/10/07 02:44:51;;;;;;;8.10;3.47;;;;;;;;;;5047079;28;20225;-90
2023/10/07 02:47:17;;;;;;;7.37;3.10;;;;;;;;;;5047644;28;20342;-93
2023/10/07 02:49:49;;;;;;;7.33;3.20;;;;;;;;;;5043671;28;20189;-91
2023/10/07 02:52:16;;;;;;;6.97;3.70;;;;;;;;;;5040210;28;20280;-90
2023/10/07 02:54:42;;;;;;;5.90;3.13;;;;;;;;;;5046910;28;20189;-90
2023/10/07 02:59:35;;;;;;;5.00;3.20;;;;;;;;;;5043657;28;20201;-90
2023/10/07 03:02:22;;;;;;;8.57;3.83;;;;;;;;;;5040824;28;20193;-92
2023/10/07 03:07:41;;;;;;;7.83;3.57;;;;;;;;;;5039952;28;20182;-91
2023/10/07 03:10:19;;;;;;;5.67;3.43;;;;;;;;;;5045958;28;20190;-90
2023/10/07 03:12:48;;;;;;;7.30;3.57;;;;;;;;;;5040430;28;20197;-92
2023/10/07 03:15:28;;;;;;;8.20;4.47;;;;;;;;;;5046254;28;20185;-90
2023/10/07 03:17:54;;;;;;;7.70;3.47;;;;;;;;;;5049375;28;20200;-90
2023/10/07 03:28:16;;;;;;;6.27;3.93;;;;;;;;;;5049616;28;20199;-90
2023/10/07 03:30:46;;;;;;;4.63;3.43;;;;;;;;;;5047075;28;20193;-91
2023/10/07 03:33:15;;;;;;;5.93;3.43;;;;;;;;;;5041611;28;20287;-90
2023/10/07 03:38:25;;;;;;;7.63;3.50;;;;;;;;;;5045905;28;20185;-90
2023/10/07 03:40:54;;;;;;;7.40;4.00;;;;;;;;;;5045114;28;20174;-91
2023/10/07 03:43:19;;;;;;;8.13;3.77;;;;;;;;;;5038911;28;20182;-91
2023/10/07 03:45:45;;;;;;;7.83;4.40;;;;;;;;;;5042560;28;20232;-89
2023/10/07 03:48:23;;;;;;;10.63;4.47;;;;;;;;;;5047107;28;20194;-90
2023/10/07 03:50:48;;;;;;;11.00;4.87;;;;;;;;;;5046261;28;20204;-91
2023/10/07 03:53:15;;;;;;;7.77;4.73;;;;;;;;;;5050376;28;20181;-93
2023/10/07 03:55:40;;;;;;;7.23;4.33;;;;;;;;;;5048522;28;20177;-92
2023/10/07 03:58:06;;;;;;;8.30;4.13;;;;;;;;;;5047573;28;20280;-91
2023/10/07 04:00:35;;;;;;;6.97;3.93;;;;;;;;;;5049217;28;20259;-92
2023/10/07 04:03:07;;;;;;;6.57;3.77;;;;;;;;;;5048432;28;20186;-92
2023/10/07 04:05:35;;;;;;;6.90;4.27;;;;;;;;;;5049544;28;20184;-91
2023/10/07 04:08:02;;;;;;;7.87;4.63;;;;;;;;;;5050826;28;20266;-90
2023/10/07 04:10:45;;;;;;;7.43;4.37;;;;;;;;;;5053488;28;20174;-92
2023/10/07 04:13:11;;;;;;;10.93;5.23;;;;;;;;;;5049214;28;20181;-90
2023/10/07 04:15:44;;;;;;;7.43;4.00;;;;;;;;;;5048905;28;20279;-91
2023/10/07 04:18:10;;;;;;;8.47;4.57;;;;;;;;;;5036781;28;20212;-91
2023/10/07 04:20:51;;;;;;;7.67;4.13;;;;;;;;;;5048959;28;20212;-91
2023/10/07 04:23:25;;;;;;;6.20;3.93;;;;;;;;;;5048543;28;20186;-91
2023/10/07 04:26:05;;;;;;;7.67;4.00;;;;;;;;;;5045957;28;20197;-92
2023/10/07 04:28:31;;;;;;;6.30;4.23;;;;;;;;;;5048930;28;20199;-91
2023/10/07 04:30:56;;;;;;;6.23;3.80;;;;;;;;;;5049123;28;20202;-91
2023/10/07 04:33:39;;;;;;;7.27;4.10;;;;;;;;;;5050988;28;20239;-91
2023/10/07 04:36:05;;;;;;;6.73;4.17;;;;;;;;;;5049529;28;20177;-90
2023/10/07 04:46:28;;;;;;;4.77;3.30;;;;;;;;;;5051577;28;20336;-90
2023/10/07 04:48:55;;;;;;;4.67;3.00;;;;;;;;;;5031484;28;20232;-89
2023/10/07 04:53:58;;;;;;;4.17;2.87;;;;;;;;;;5046618;28;20173;-90
2023/10/07 04:56:25;;;;;;;5.67;2.90;;;;;;;;;;5040632;28;20272;-89
2023/10/07 04:58:54;;;;;;;6.60;3.37;;;;;;;;;;5049384;28;20408;-90
2023/10/07 05:01:30;;;;;;;5.67;3.30;;;;;;;;;;5049090;28;20186;-90
2023/10/07 05:03:55;;;;;;;5.73;3.30;;;;;;;;;;5063852;28;20232;-89
2023/10/07 05:06:28;;;;;;;4.77;2.90;;;;;;;;;;5046521;28;20210;-89
2023/10/07 05:08:54;;;;;;;6.17;3.30;;;;;;;;;;5044158;28;20174;-90
2023/10/07 05:11:19;;;;;;;9.20;3.30;;;;;;;;;;5051112;28;20190;-90
2023/10/07 05:13:45;;;;;;;4.80;3.17;;;;;;;;;;5062640;28;20268;-89
2023/10/07 05:16:14;;;;;;;5.43;3.13;;;;;;;;;;5047915;28;20200;-89
2023/10/07 05:18:39;;;;;;;5.00;3.03;;;;;;;;;;5044793;28;20200;-90
2023/10/07 05:21:05;;;;;;;5.03;3.53;;;;;;;;;;5048902;28;20177;-89
2023/10/07 05:23:31;;;;;;;7.63;3.90;;;;;;;;;;5049281;28;20197;-89
2023/10/07 05:26:03;;;;;;;5.37;3.40;;;;;;;;;;5045724;28;20185;-89
2023/10/07 05:28:30;;;;;;;5.90;3.60;;;;;;;;;;5045630;28;20189;-89
2023/10/07 05:30:57;;;;;;;6.63;3.30;;;;;;;;;;5042839;28;20216;-90
2023/10/07 05:33:26;;;;;;;6.53;3.30;;;;;;;;;;5048685;28;20204;-90
2023/10/07 05:35:56;;;;;;;8.10;3.87;;;;;;;;;;5044196;28;20174;-89
2023/10/07 05:38:22;;;;;;;7.67;3.10;;;;;;;;;;5046534;28;20193;-89
2023/10/07 05:40:47;;;;;;;7.20;4.20;;;;;;;;;;5049056;28;20192;-91
2023/10/07 05:43:12;;;;;;;6.97;3.73;;;;;;;;;;5048067;28;20181;-88
2023/10/07 05:45:40;;;;;;;4.63;3.23;;;;;;;;;;5047403;28;20222;-89
2023/10/07 05:48:05;;;;;;;5.97;3.17;;;;;;;;;;5041908;28;20182;-89
2023/10/07 05:50:32;;;;;;;7.27;3.63;;;;;;;;;;5052551;28;20237;-89
2023/10/07 05:52:58;;;;;;;8.90;4.03;;;;;;;;;;5045242;28;20178;-91
2023/10/07 05:55:23;;;;;;;6.57;3.33;;;;;;;;;;5049060;28;20323;-90
2023/10/07 05:57:51;;;;;;;4.80;3.57;;;;;;;;;;5041307;28;20241;-89
2023/10/07 06:00:17;;;;;;;5.33;3.13;;;;;;;;;;5046885;28;20177;-89
2023/10/07 06:02:42;;;;;;;6.33;3.50;;;;;;;;;;5050238;28;20185;-90
2023/10/07 06:05:10;;;;;;;5.13;2.90;;;;;;;;;;5046486;28;20188;-91
2023/10/07 06:07:36;;;;;;;5.57;3.37;;;;;;;;;;5046841;28;20185;-91
2023/10/07 06:10:02;;;;;;;7.23;3.40;;;;;;;;;;5049519;28;20192;-89
2023/10/07 06:12:28;;;;;;;8.07;3.60;;;;;;;;;;5043190;28;20203;-90
2023/10/07 06:14:54;;;;;;;5.20;3.77;;;;;;;;;;5047332;28;20191;-91
2023/10/07 06:17:20;;;;;;;6.90;3.50;;;;;;;;;;5048440;28;20253;-89
2023/10/07 06:19:45;;;;;;;7.00;3.20;;;;;;;;;;5041430;28;20281;-88
2023/10/07 06:22:15;;;;;;;6.23;3.20;;;;;;;;;;5047590;28;20188;-89
2023/10/07 06:24:41;;;;;;;5.40;3.20;;;;;;;;;;5044927;28;20185;-90
2023/10/07 06:27:11;;;;;;;6.77;3.03;;;;;;;;;;5053339;28;20184;-90
2023/10/07 06:29:41;;;;;;;6.67;3.30;;;;;;;;;;5050523;28;20189;-88
2023/10/07 06:32:28;;;;;;;5.33;3.00;;;;;;;;;;5051038;28;20294;-90
2023/10/07 06:34:59;;;;;;;8.60;3.77;;;;;;;;;;5051490;28;20182;-93
2023/10/07 06:37:30;;;;;;;9.10;3.33;;;;;;;;;;5053983;28;20182;-94
2023/10/07 06:40:00;;;;;;;4.27;2.63;;;;;;;;;;5045634;28;20256;-93
2023/10/07 06:42:26;;;;;;;5.13;2.83;;;;;;;;;;5051703;28;20179;-94
2023/10/07 06:44:55;;;;;;;7.40;2.90;;;;;;;;;;5048979;28;20287;-90
2023/10/07 06:47:21;;;;;;;4.17;2.43;;;;;;;;;;5044967;28;20217;-90
2023/10/07 06:49:47;;;;;;;4.27;2.80;;;;;;;;;;5048555;28;20186;-89
2023/10/07 06:52:12;;;;;;;4.73;2.90;;;;;;;;;;5045505;28;20237;-90
2023/10/07 06:54:38;;;;;;;3.50;2.50;;;;;;;;;;5044299;28;20180;-89
2023/10/07 06:57:10;;;;;;;6.77;2.70;;;;;;;;;;5048014;28;20204;-90
2023/10/07 06:59:39;;;;;;;5.03;2.77;;;;;;;;;;5042458;28;20306;-90
2023/10/07 07:02:11;;;;;;;4.80;2.77;;;;;;;;;;5044450;28;20179;-90
2023/10/07 07:04:36;;;;;;;4.07;2.80;;;;;;;;;;5045892;28;20215;-89
2023/10/07 07:07:11;;;;;;;7.30;3.40;;;;;;;;;;5048435;28;20188;-89
2023/10/07 07:12:16;;;;;;;4.77;3.13;;;;;;;;;;5046686;28;20288;-89
2023/10/07 07:15:04;;;;;;;5.57;3.07;;;;;;;;;;5049705;28;20284;-88
2023/10/07 07:17:29;;;;;;;7.20;3.00;;;;;;;;;;5051019;28;20239;-90
2023/10/07 07:22:35;;;;;;;4.40;2.80;;;;;;;;;;5046812;28;20189;-90
2023/10/07 07:25:05;;;;;;;6.40;2.90;;;;;;;;;;5051464;28;20200;-91
2023/10/07 07:27:34;;;;;;;5.53;2.73;;;;;;;;;;5057310;28;20185;-91
2023/10/07 07:30:02;;;;;;;5.63;3.17;;;;;;;;;;5053984;28;20271;-90
2023/10/07 07:32:32;;;;;;;5.63;3.57;;;;;;;;;;5046253;28;20206;-90
2023/10/07 07:35:02;;;;;;;6.20;3.40;;;;;;;;;;5059362;28;20182;-90
2023/10/07 07:37:27;;;;;;;5.40;3.10;;;;;;;;;;5051682;28;20220;-89
2023/10/07 07:39:52;;;;;;;5.53;3.30;;;;;;;;;;5050898;28;20260;-90
2023/10/07 07:42:23;;;;;;;6.10;3.73;;;;;;;;;;5048554;28;20214;-90
2023/10/07 07:44:57;;;;;;;5.43;3.50;;;;;;;;;;5051075;28;20249;-88
2023/10/07 07:47:23;;;;;;;4.83;3.00;;;;;;;;;;5053855;28;20186;-89
2023/10/07 07:49:48;;;;;;;6.67;3.77;;;;;;;;;;5052380;28;20197;-91
2023/10/07 07:52:15;;;;;;;7.77;3.57;;;;;;;;;;5053549;28;20213;-89
2023/10/07 07:54:44;;;;;;;6.30;3.30;;;;;;;;;;5053417;28;20187;-89
2023/10/07 07:57:09;;;;;;;5.03;2.67;;;;;;;;;;5053341;28;20178;-90
2023/10/07 07:59:36;;;;;;;4.70;2.90;;;;;;;;;;5051108;28;20194;-89
2023/10/07 08:02:16;;;;;;;5.10;3.73;;;;;;;;;;5053444;28;20180;-89
2023/10/07 08:04:48;;;;;;;4.33;2.73;;;;;;;;;;5049506;28;20275;-89
2023/10/07 08:09:50;;;;;;;6.70;2.83;;;;;;;;;;5048333;28;20177;-89
2023/10/07 08:12:28;;;;;;;4.83;3.57;;;;;;;;;;5051290;28;20208;-88
2023/10/07 08:15:15;;;;;;;5.17;2.90;;;;;;;;;;5062969;28;20217;-89
2023/10/07 08:17:44;;;;;;;7.03;3.17;;;;;;;;;;5049676;28;20176;-89
2023/10/07 08:20:10;;;;;;;5.13;2.83;;;;;;;;;;5045921;28;20185;-89
2023/10/07 08:22:44;;;;;;;5.77;3.23;;;;;;;;;;5049569;28;20197;-89
2023/10/07 08:25:10;;;;;;;5.77;3.07;;;;;;;;;;5052098;28;20267;-89
2023/10/07 08:27:45;;;;;;;6.20;3.10;;;;;;;;;;5054462;28;20279;-89
2023/10/07 08:30:13;;;;;;;9.97;4.07;;;;;;;;;;5054477;28;20189;-89
2023/10/07 08:32:41;;;;;;;4.00;2.27;;;;;;;;;;5053026;28;20208;-88
2023/10/07 08:35:17;;;;;;;3.43;2.40;;;;;;;;;;5047975;28;20323;-89
2023/10/07 08:37:45;;;;;;;8.97;2.97;;;;;;;;;;5044817;28;20198;-89
2023/10/07 08:40:15;;;;;;;3.63;2.73;;;;;;;;;;5042940;28;20182;-89
2023/10/07 08:42:45;;;;;;;5.87;4.07;;;;;;;;;;5044846;28;20399;-89
2023/10/07 08:45:14;;;;;;;6.73;3.10;;;;;;;;;;5051801;28;20310;-91
2023/10/07 08:47:48;;;;;;;5.33;2.67;;;;;;;;;;5049122;28;20185;-89
2023/10/07 08:50:14;;;;;;;3.53;2.67;;;;;;;;;;5045315;28;20181;-88
2023/10/07 08:52:42;;;;;;;4.87;2.80;;;;;;;;;;5050518;28;20211;-89
2023/10/07 08:55:09;;;;;;;5.03;2.20;;;;;;;;;;5047796;28;20180;-89
2023/10/07 08:57:35;;;;;;;3.80;2.43;;;;;;;;;;5050895;28;20177;-90
2023/10/07 09:00:00;;;;;;;4.70;2.40;;;;;;;;;;5051011;28;20202;-90
2023/10/07 09:02:26;;;;;;;4.97;3.00;;;;;;;;;;5048220;28;20254;-89
2023/10/07 09:04:55;;;;;;;3.57;2.30;;;;;;;;;;5047767;28;20175;-89
2023/10/07 09:07:21;;;;;;;4.17;2.87;;;;;;;;;;5051423;28;20184;-88
2023/10/07 09:09:47;;;;;;;3.97;2.60;;;;;;;;;;5046374;28;20179;-89
2023/10/07 09:12:18;;;;;;;4.93;2.60;;;;;;;;;;5050814;28;20223;-90
2023/10/07 09:14:57;;;;;;;4.03;2.47;;;;;;;;;;5048780;28;20182;-90
2023/10/07 09:17:23;;;;;;;4.23;2.60;;;;;;;;;;5046005;28;20206;-90
2023/10/07 09:19:52;;;;;;;5.13;3.17;;;;;;;;;;5045572;28;20271;-89
2023/10/07 09:22:24;;;;;;;4.27;2.40;;;;;;;;;;5044338;28;20170;-89
2023/10/07 09:24:49;;;;;;;3.50;2.33;;;;;;;;;;5046983;28;20204;-89
2023/10/07 09:27:14;;;;;;;6.20;2.37;;;;;;;;;;5046941;28;20271;-90
2023/10/07 09:29:44;;;;;;;13.43;3.37;;;;;;;;;;5059956;28;20177;-90
2023/10/07 09:32:21;;;;;;;3.80;2.33;;;;;;;;;;5046012;28;20199;-88
2023/10/07 09:34:47;;;;;;;4.73;2.30;;;;;;;;;;5054440;28;20178;-90
2023/10/07 09:37:13;;;;;;;3.87;2.30;;;;;;;;;;5043287;28;20178;-89
2023/10/07 09:39:45;;;;;;;4.80;2.80;;;;;;;;;;5049980;28;20166;-90
2023/10/07 09:42:56;;;;;;;3.87;2.77;;;;;;;;;;5051734;28;20265;-89
2023/10/07 09:47:37;;;;;;;3.80;2.30;;;;;;;;;;5047313;28;20175;-90
2023/10/07 09:50:10;;;;;;;3.60;2.03;;;;;;;;;;5046394;28;20274;-90
2023/10/07 09:52:41;;;;;;;4.03;2.37;;;;;;;;;;5042626;28;20198;-89
2023/10/07 09:55:20;;;;;;;5.23;3.03;;;;;;;;;;5047119;28;20201;-89
2023/10/07 09:57:46;;;;;;;3.23;2.37;;;;;;;;;;5048917;28;20175;-90
2023/10/07 10:03:15;;;;;;;6.43;2.17;;;;;;;;;;5045201;28;20180;-89
2023/10/07 10:06:03;;;;;;;3.17;2.40;;;;;;;;;;5048560;28;20177;-90
2023/10/07 10:08:29;;;;;;;2.60;2.07;;;;;;;;;;5049187;28;20179;-90
2023/10/07 10:10:58;;;;;;;3.60;2.50;;;;;;;;;;5049469;28;20185;-90
2023/10/07 10:13:51;;;;;;;5.60;2.30;;;;;;;;;;5048742;28;20179;-90
2023/10/07 10:16:16;;;;;;;3.20;2.60;;;;;;;;;;5043136;28;20176;-88
2023/10/07 10:18:44;;;;;;;5.50;3.03;;;;;;;;;;5055517;28;20253;-90
2023/10/07 10:21:09;;;;;;;4.67;2.47;;;;;;;;;;5054844;28;20181;-91
2023/10/07 10:23:37;;;;;;;2.53;2.20;;;;;;;;;;5050622;28;20279;-91
2023/10/07 10:26:26;;;;;;;4.27;2.60;;;;;;;;;;5049697;28;20170;-91
2023/10/07 10:28:59;;;;;;;4.13;2.30;;;;;;;;;;5050582;28;20192;-89
2023/10/07 10:31:31;;;;;;;4.37;2.67;;;;;;;;;;5047303;28;20198;-89
2023/10/07 10:33:58;;;;;;;4.17;2.60;;;;;;;;;;5047259;28;20181;-89
2023/10/07 10:36:23;;;;;;;4.90;2.40;;;;;;;;;;5050177;28;20179;-90
2023/10/07 10:38:49;;;;;;;3.20;2.33;;;;;;;;;;5047530;28;20284;-89
2023/10/07 10:41:15;;;;;;;3.47;2.43;;;;;;;;;;5049779;28;20265;-90
2023/10/07 10:43:41;;;;;;;3.30;2.40;;;;;;;;;;5049229;28;20182;-89
2023/10/07 10:46:07;;;;;;;2.47;2.20;;;;;;;;;;5049015;28;20224;-92
2023/10/07 10:48:34;;;;;;;3.83;2.97;;;;;;;;;;5044605;28;20202;-92
2023/10/07 10:51:00;;;;;;;3.37;2.30;;;;;;;;;;5058896;28;20212;-91
2023/10/07 10:53:25;;;;;;;4.77;2.40;;;;;;;;;;5046472;28;20177;-89
2023/10/07 10:55:51;;;;;;;5.17;2.43;;;;;;;;;;5048588;28;20176;-89
2023/10/07 10:58:18;;;;;;;3.67;2.70;;;;;;;;;;5049418;28;20195;-90
2023/10/07 11:00:51;;;;;;;6.10;2.70;;;;;;;;;;5052427;28;20203;-90
2023/10/07 11:03:20;;;;;;;4.53;2.93;;;;;;;;;;5040614;28;20178;-89
2023/10/07 11:05:46;;;;;;;5.50;3.00;;;;;;;;;;5045859;28;20187;-90
2023/10/07 11:08:11;;;;;;;6.47;2.90;;;;;;;;;;5047786;28;20254;-91
2023/10/07 11:10:37;;;;;;;3.77;2.53;;;;;;;;;;5050481;28;20232;-93
2023/10/07 11:13:05;;;;;;;3.43;2.60;;;;;;;;;;5044998;28;20195;-91
2023/10/07 11:15:30;;;;;;;3.83;2.50;;;;;;;;;;5049815;28;20167;-91
2023/10/07 11:17:57;;;;;;;3.70;2.87;;;;;;;;;;5047597;28;20186;-92
2023/10/07 11:20:24;;;;;;;3.57;2.40;;;;;;;;;;5045642;28;20186;-90
2023/10/07 11:22:50;;;;;;;3.80;2.60;;;;;;;;;;5039859;28;20234;-90
2023/10/07 11:25:15;;;;;;;5.23;2.67;;;;;;;;;;5044975;28;20172;-91
2023/10/07 11:27:43;;;;;;;5.93;3.70;;;;;;;;;;5037659;28;20170;-92
2023/10/07 11:30:11;;;;;;;6.73;2.67;;;;;;;;;;5048701;28;20181;-90
2023/10/07 11:32:39;;;;;;;5.77;2.60;;;;;;;;;;5048291;28;20339;-90
2023/10/07 11:35:14;;;;;;;3.13;2.27;;;;;;;;;;5044360;28;20228;-89
2023/10/07 11:37:46;;;;;;;3.47;2.70;;;;;;;;;;5058429;28;20166;-91
2023/10/07 11:40:11;;;;;;;4.73;2.97;;;;;;;;;;5050689;28;20176;-90
2023/10/07 11:42:37;;;;;;;4.40;2.70;;;;;;;;;;5049767;28;20174;-89
2023/10/07 11:45:04;;;;;;;3.50;2.80;;;;;;;;;;5050463;28;20221;-93
2023/10/07 11:47:30;;;;;;;6.43;4.10;;;;;;;;;;5049581;28;20183;-90
2023/10/07 11:49:55;;;;;;;4.10;2.70;;;;;;;;;;5050025;28;20247;-92
2023/10/07 11:52:20;;;;;;;5.23;2.93;;;;;;;;;;5049028;28;20226;-91
2023/10/07 11:54:46;;;;;;;4.57;2.73;;;;;;;;;;5048351;28;20286;-91
2023/10/07 11:57:13;;;;;;;4.07;2.13;;;;;;;;;;5049410;28;20185;-89
2023/10/07 11:59:41;;;;;;;5.63;2.77;;;;;;;;;;5048582;28;20186;-89
2023/10/07 12:02:10;;;;;;;4.13;2.50;;;;;;;;;;5057494;28;20190;-89
2023/10/07 12:04:54;;;;;;;6.27;2.80;;;;;;;;;;5047519;28;20217;-90
2023/10/07 12:07:19;;;;;;;2.97;2.53;;;;;;;;;;5041242;28;20190;-90
2023/10/07 12:09:46;;;;;;;6.87;2.50;;;;;;;;;;5049133;28;20242;-88
2023/10/07 12:12:12;;;;;;;6.10;3.17;;;;;;;;;;5047129;28;20214;-90
2023/10/07 12:14:37;;;;;;;4.70;2.50;;;;;;;;;;5046866;28;20196;-89
2023/10/07 12:17:04;;;;;;;3.57;2.33;;;;;;;;;;5049566;28;20189;-90
2023/10/07 12:19:30;;;;;;;4.70;2.83;;;;;;;;;;5053617;28;20232;-90
2023/10/07 12:21:56;;;;;;;4.67;2.97;;;;;;;;;;5034051;28;20284;-90
2023/10/07 12:24:21;;;;;;;5.30;2.90;;;;;;;;;;5049204;28;20176;-91
2023/10/07 12:26:47;;;;;;;3.20;2.57;;;;;;;;;;5049270;28;20180;-91
2023/10/07 12:29:13;;;;;;;2.97;2.07;;;;;;;;;;5050301;28;20171;-92
2023/10/07 12:31:39;;;;;;;3.20;2.43;;;;;;;;;;5045828;28;20203;-90
2023/10/07 12:34:05;;;;;;;4.90;3.10;;;;;;;;;;5051950;28;20184;-91
2023/10/07 12:36:30;;;;;;;5.47;3.03;;;;;;;;;;5045206;28;20260;-90
2023/10/07 12:38:56;;;;;;;2.97;2.50;;;;;;;;;;5045894;28;20183;-90
2023/10/07 12:41:21;;;;;;;5.70;2.80;;;;;;;;;;5051023;28;20193;-89
2023/10/07 12:43:47;;;;;;;7.47;3.60;;;;;;;;;;5052220;28;20188;-89
2023/10/07 12:46:14;;;;;;;4.33;3.00;;;;;;;;;;5050650;28;20219;-91
2023/10/07 12:48:40;;;;;;;3.80;2.80;;;;;;;;;;5060160;28;20272;-90
2023/10/07 12:51:06;;;;;;;4.70;3.03;;;;;;;;;;5050790;28;20263;-90
2023/10/07 12:53:33;;;;;;;4.40;2.50;;;;;;;;;;5050865;28;20174;-90
2023/10/07 12:55:58;;;;;;;2.97;2.17;;;;;;;;;;5051143;28;20181;-90
2023/10/07 12:58:26;;;;;;;3.43;2.70;;;;;;;;;;5048760;28;20224;-90
2023/10/07 13:00:52;;;;;;;3.57;2.57;;;;;;;;;;5057871;28;20178;-90
2023/10/07 13:03:17;;;;;;;3.20;2.70;;;;;;;;;;5041814;28;20178;-91
2023/10/07 13:05:45;;;;;;;4.33;2.70;;;;;;;;;;5046881;28;20186;-89
2023/10/07 13:08:16;;;;;;;3.90;3.03;;;;;;;;;;5042039;28;20316;-91
2023/10/07 13:10:42;;;;;;;3.43;2.87;;;;;;;;;;5051829;28;20167;-91
2023/10/07 13:13:07;;;;;;;4.30;2.93;;;;;;;;;;5051560;28;20202;-91
2023/10/07 13:15:36;;;;;;;3.57;2.23;;;;;;;;;;5048786;28;20195;-92
2023/10/07 13:18:02;;;;;;;4.03;2.43;;;;;;;;;;5050921;28;20230;-91
2023/10/07 13:20:28;;;;;;;6.57;2.93;;;;;;;;;;5051224;28;20183;-91
2023/10/07 13:22:54;;;;;;;5.40;3.03;;;;;;;;;;5048450;28;20186;-90
2023/10/07 13:25:19;;;;;;;5.90;3.40;;;;;;;;;;5052117;28;20176;-90
2023/10/07 13:27:58;;;;;;;4.13;2.83;;;;;;;;;;5039045;28;20169;-90
2023/10/07 13:30:24;;;;;;;7.10;2.93;;;;;;;;;;5044675;28;20181;-89
2023/10/07 13:32:52;;;;;;;4.17;3.03;;;;;;;;;;5050833;28;20192;-90
2023/10/07 13:35:19;;;;;;;6.43;3.13;;;;;;;;;;5051866;28;20171;-90
2023/10/07 13:37:45;;;;;;;4.70;2.40;;;;;;;;;;5044965;28;20247;-90
2023/10/07 13:40:15;;;;;;;6.90;3.23;;;;;;;;;;5051147;28;20169;-90
2023/10/07 13:42:45;;;;;;;8.43;3.40;;;;;;;;;;5043941;28;20230;-91
2023/10/07 13:45:14;;;;;;;3.93;3.13;;;;;;;;;;5045475;28;20245;-91
2023/10/07 13:47:39;;;;;;;4.73;3.37;;;;;;;;;;5052049;28;20176;-89
2023/10/07 13:50:10;;;;;;;7.07;3.37;;;;;;;;;;5048325;28;20385;-92
2023/10/07 13:52:44;;;;;;;4.63;3.47;;;;;;;;;;5043447;28;20202;-91
2023/10/07 13:57:55;;;;;;;5.07;2.97;;;;;;;;;;5048573;28;20191;-90
2023/10/07 14:03:19;;;;;;;4.67;2.97;;;;;;;;;;5045421;28;20207;-91
2023/10/07 14:05:48;;;;;;;3.67;2.70;;;;;;;;;;5048900;28;20191;-90
2023/10/07 14:08:17;;;;;;;4.67;3.03;;;;;;;;;;5048037;28;20179;-91
2023/10/07 14:10:43;;;;;;;6.07;3.73;;;;;;;;;;5054025;28;20252;-90
2023/10/07 14:13:11;;;;;;;3.87;2.83;;;;;;;;;;5048961;28;20216;-92
2023/10/07 14:15:37;;;;;;;4.80;3.63;;;;;;;;;;5048093;28;20194;-91
2023/10/07 14:18:02;;;;;;;4.83;3.87;;;;;;;;;;5045539;28;20175;-89
2023/10/07 14:20:29;;;;;;;3.97;3.57;;;;;;;;;;5044915;28;20203;-91
2023/10/07 14:22:56;;;;;;;3.63;2.87;;;;;;;;;;5038906;28;20198;-91
2023/10/07 14:25:21;;;;;;;4.87;3.03;;;;;;;;;;5043707;28;20183;-92
2023/10/07 14:27:53;;;;;;;4.17;3.13;;;;;;;;;;5044974;28;20208;-91
2023/10/07 14:30:18;;;;;;;5.27;3.33;;;;;;;;;;5045553;28;20346;-90
2023/10/07 14:32:44;;;;;;;4.30;3.30;;;;;;;;;;5044654;28;20233;-92
2023/10/07 14:35:11;;;;;;;4.10;2.80;;;;;;;;;;5046899;28;20171;-91
2023/10/07 14:37:38;;;;;;;3.50;2.70;;;;;;;;;;5041475;28;20270;-91
2023/10/07 14:40:04;;;;;;;4.20;3.10;;;;;;;;;;5045238;28;20388;-91
2023/10/07 14:42:31;;;;;;;7.47;2.87;;;;;;;;;;5043242;28;20170;-91
2023/10/07 14:44:56;;;;;;;2.93;2.60;;;;;;;;;;5039754;28;20227;-90
2023/10/07 14:47:22;;;;;;;4.83;3.57;;;;;;;;;;5044994;28;20191;-91
2023/10/07 14:49:48;;;;;;;4.43;3.33;;;;;;;;;;5048723;28;20489;-92
2023/10/07 14:52:16;;;;;;;4.53;3.03;;;;;;;;;;5036715;28;20198;-91
2023/10/07 14:54:41;;;;;;;3.93;2.60;;;;;;;;;;5045316;28;20182;-89
2023/10/07 14:57:06;;;;;;;3.80;2.93;;;;;;;;;;5045314;28;20180;-90
2023/10/07 14:59:35;;;;;;;3.97;3.43;;;;;;;;;;5049559;28;20244;-92
2023/10/07 15:02:01;;;;;;;5.67;2.87;;;;;;;;;;5026498;28;20182;-90
2023/10/07 15:04:27;;;;;;;3.93;2.97;;;;;;;;;;5048221;28;20187;-92
2023/10/07 15:06:53;;;;;;;3.77;2.87;;;;;;;;;;5046231;28;20180;-91
2023/10/07 15:09:21;;;;;;;3.70;3.13;;;;;;;;;;5050012;28;20186;-91
2023/10/07 15:11:51;;;;;;;4.23;2.93;;;;;;;;;;5043842;28;20282;-90
2023/10/07 15:14:16;;;;;;;4.27;2.60;;;;;;;;;;5043843;28;20209;-89
2023/10/07 15:16:42;;;;;;;3.40;2.70;;;;;;;;;;5057149;28;20233;-90
2023/10/07 15:19:08;;;;;;;5.07;3.00;;;;;;;;;;5039354;28;20266;-89
2023/10/07 15:21:34;;;;;;;4.47;3.30;;;;;;;;;;5045230;28;20198;-90
2023/10/07 15:24:00;;;;;;;4.57;2.87;;;;;;;;;;5064606;28;20185;-90
2023/10/07 15:26:25;;;;;;;5.17;3.33;;;;;;;;;;5049130;28;20179;-89
2023/10/07 15:28:50;;;;;;;4.50;2.73;;;;;;;;;;5035717;28;20179;-88
2023/10/07 15:31:19;;;;;;;4.27;3.10;;;;;;;;;;5046731;28;20285;-90
2023/10/07 15:33:55;;;;;;;3.70;2.73;;;;;;;;;;5042924;28;20177;-90
2023/10/07 15:36:21;;;;;;;5.97;3.00;;;;;;;;;;5048916;28;20224;-91
2023/10/07 15:38:49;;;;;;;4.00;2.83;;;;;;;;;;5040715;28;20175;-90
2023/10/07 15:41:15;;;;;;;7.03;3.00;;;;;;;;;;5047643;28;20242;-89
2023/10/07 15:43:41;;;;;;;5.37;2.80;;;;;;;;;;5047696;28;20177;-90